Time;durP1;ratioP1;P1;durP2;ratioP2;P2;SDS_P1;SDS_P2;PMS_P1;PMS_P2;Temp;Humidity;BMP_temperature;BMP_pressure;BME280_temperature;BME280_humidity;BME280_pressure;Samples;Min_cycle;Max_cycle;Signal;HPM_P1;HPM_P2
2022/04/12 00:00:00;;;;;;;13.73;6.67;;;;;;;9.00;42.23;100892.09;5395307;32;34751;-65
2022/04/12 00:03:03;;;;;;;13.47;6.87;;;;;;;8.62;43.13;100897.34;5403599;32;35162;-75
2022/04/12 00:06:06;;;;;;;13.05;7.57;;;;;;;8.02;44.69;100894.28;5398611;32;34934;-76
2022/04/12 00:09:08;;;;;;;14.43;7.23;;;;;;;7.54;45.79;100892.59;5375465;32;34565;-76
2022/04/12 00:12:10;;;;;;;17.87;7.33;;;;;;;7.55;46.17;100894.31;5416875;32;34923;-74
2022/04/12 00:15:13;;;;;;;12.87;6.90;;;;;;;7.29;46.82;100899.16;5409009;32;33155;-75
2022/04/12 00:21:36;;;;;;;15.07;6.77;;;;;;;7.82;45.32;100885.06;5392641;32;35124;-64
2022/04/12 00:24:38;;;;;;;14.30;6.87;;;;;;;7.58;46.55;100883.78;5411675;32;34949;-76
2022/04/12 00:27:41;;;;;;;15.37;6.93;;;;;;;6.73;48.68;100890.47;5406590;32;35243;-64
2022/04/12 00:30:43;;;;;;;14.70;6.80;;;;;;;7.42;46.66;100882.38;5404533;32;34788;-75
2022/04/12 00:33:45;;;;;;;18.57;6.73;;;;;;;7.00;48.07;100886.56;5425351;32;34583;-75
2022/04/12 00:36:47;;;;;;;13.87;6.27;;;;;;;6.30;49.70;100872.81;5397288;32;34447;-74
2022/04/12 00:39:50;;;;;;;15.03;7.07;;;;;;;6.97;47.95;100873.56;5416063;32;35426;-74
2022/04/12 00:42:53;;;;;;;15.40;6.60;;;;;;;6.67;48.36;100878.38;5396830;32;44764;-64
2022/04/12 00:46:00;;;;;;;18.25;7.43;;;;;;;6.76;47.84;100878.25;5399234;32;35039;-76
2022/04/12 00:49:02;;;;;;;14.20;6.77;;;;;;;6.71;47.79;100874.84;5401960;32;35357;-64
2022/04/12 00:52:06;;;;;;;14.03;7.13;;;;;;;6.74;47.72;100874.78;5393342;32;33972;-64
2022/04/12 00:55:09;;;;;;;13.40;6.50;;;;;;;6.46;48.27;100879.56;5411305;32;34733;-75
2022/04/12 00:58:11;;;;;;;13.93;7.23;;;;;;;6.61;48.03;100882.84;5381598;32;34325;-75
2022/04/12 01:01:13;;;;;;;14.23;6.97;;;;;;;6.63;48.00;100878.44;5399446;32;34533;-77
2022/04/12 01:04:16;;;;;;;12.87;6.80;;;;;;;6.80;47.47;100884.28;5407103;32;35342;-68
2022/04/12 01:07:19;;;;;;;15.53;6.87;;;;;;;6.68;47.79;100884.47;5394973;32;35097;-75
2022/04/12 01:10:22;;;;;;;13.17;7.07;;;;;;;6.68;48.06;100884.47;5423545;32;44646;-74
2022/04/12 01:13:24;;;;;;;;;;;;;;;6.59;48.08;100882.00;5414177;32;34372;-76
2022/04/12 01:16:27;;;;;;;14.43;7.03;;;;;;;6.34;48.83;100886.72;5413181;32;35164;-75
2022/04/12 01:19:29;;;;;;;14.90;6.20;;;;;;;6.66;47.94;100873.19;5397063;32;34543;-75
2022/04/12 01:22:31;;;;;;;13.13;7.10;;;;;;;6.40;47.83;100877.03;5414643;32;35075;-64
2022/04/12 01:25:34;;;;;;;12.50;6.77;;;;;;;6.79;47.70;100874.72;5408646;32;36934;-76
2022/04/12 01:28:37;;;;;;;14.60;7.73;;;;;;;6.33;48.89;100875.41;5399950;32;34789;-64
2022/04/12 01:31:39;;;;;;;14.43;7.03;;;;;;;6.27;49.28;100869.41;5398124;32;34632;-76
2022/04/12 01:34:41;;;;;;;16.13;7.13;;;;;;;6.62;48.53;100874.97;5408423;32;35675;-75
2022/04/12 01:37:43;;;;;;;15.23;7.07;;;;;;;6.99;47.69;100863.94;5413912;32;35177;-64
2022/04/12 01:40:45;;;;;;;13.77;6.60;;;;;;;6.75;48.00;100867.81;5389757;32;34894;-77
2022/04/12 01:43:47;;;;;;;13.83;7.10;;;;;;;6.63;48.02;100870.59;5424129;32;35686;-63
2022/04/12 01:46:49;;;;;;;13.97;7.37;;;;;;;6.71;48.66;100871.37;5402829;32;37650;-76
2022/04/12 01:49:52;;;;;;;14.77;7.53;;;;;;;6.90;48.27;100871.94;5405813;32;44466;-75
2022/04/12 01:52:54;;;;;;;13.70;7.53;;;;;;;7.87;45.55;100864.91;5418847;32;34801;-75
2022/04/12 01:55:56;;;;;;;15.23;8.17;;;;;;;6.32;48.66;100868.47;5382164;32;34730;-74
2022/04/12 01:59:02;;;;;;;16.23;8.07;;;;;;;5.98;50.47;100879.31;5410829;32;34190;-76
2022/04/12 02:02:05;;;;;;;15.47;7.87;;;;;;;5.96;50.44;100870.66;5388321;32;34547;-75
2022/04/12 02:05:07;;;;;;;13.17;7.40;;;;;;;7.12;47.86;100867.22;5408189;32;34924;-72
2022/04/12 02:08:09;;;;;;;17.63;7.50;;;;;;;7.91;45.58;100865.69;5404928;32;35639;-64
2022/04/12 02:11:11;;;;;;;14.13;7.00;;;;;;;6.94;46.94;100869.22;5408229;32;35705;-63
2022/04/12 02:14:14;;;;;;;15.27;7.63;;;;;;;6.31;49.30;100869.34;5423869;32;35921;-64
2022/04/12 02:17:17;;;;;;;14.37;7.53;;;;;;;6.83;48.66;100873.78;5397386;32;35785;-75
2022/04/12 02:20:20;;;;;;;14.05;7.60;;;;;;;7.53;46.99;100859.47;5412131;32;34971;-64
2022/04/12 02:23:22;;;;;;;14.83;7.80;;;;;;;7.55;46.17;100854.22;5397332;32;44640;-64
2022/04/12 02:26:24;;;;;;;14.70;8.10;;;;;;;6.71;48.52;100860.91;5404764;32;34680;-64
2022/04/12 02:29:26;;;;;;;15.17;8.17;;;;;;;6.20;50.63;100871.25;5421600;32;34845;-75
2022/04/12 02:32:29;;;;;;;14.00;7.27;;;;;;;7.07;48.40;100867.28;5384582;32;33680;-64
2022/04/12 02:35:31;;;;;;;17.37;8.10;;;;;;;7.20;47.80;100860.09;5426042;32;34098;-64
2022/04/12 02:38:33;;;;;;;15.73;7.93;;;;;;;6.91;48.69;100874.53;5405973;32;34671;-64
2022/04/12 02:41:36;;;;;;;15.57;8.03;;;;;;;6.34;50.36;100874.50;5406698;32;35001;-64
2022/04/12 02:44:38;;;;;;;14.23;8.60;;;;;;;6.38;50.75;100876.22;5413157;32;34905;-65
2022/04/12 02:47:40;;;;;;;15.57;7.83;;;;;;;6.27;51.64;100872.88;5403233;32;35939;-76
2022/04/12 02:50:42;;;;;;;16.40;8.20;;;;;;;5.97;52.45;100881.97;5411595;32;36174;-76
2022/04/12 02:53:44;;;;;;;15.43;8.50;;;;;;;6.18;52.03;100883.41;5405719;32;34825;-65
2022/04/12 02:56:46;;;;;;;17.13;8.40;;;;;;;6.73;50.74;100883.50;5399554;32;37302;-64
2022/04/12 02:59:48;;;;;;;17.43;8.33;;;;;;;6.71;50.45;100884.44;5396757;32;34299;-64
2022/04/12 03:02:50;;;;;;;15.83;8.37;;;;;;;6.23;52.13;100895.53;5422621;32;35129;-64
2022/04/12 03:05:53;;;;;;;14.07;7.80;;;;;;;6.00;52.75;100881.94;5406193;32;45153;-63
2022/04/12 03:08:55;;;;;;;16.53;8.67;;;;;;;5.91;54.27;100900.28;5411323;32;34465;-65
2022/04/12 03:11:57;;;;;;;14.83;8.03;;;;;;;6.13;53.40;100898.31;5411522;32;35505;-74
2022/04/12 03:15:01;;;;;;;17.67;8.33;;;;;;;6.90;51.67;100887.63;5398470;32;33958;-76
2022/04/12 03:18:03;;;;;;;15.80;7.57;;;;;;;7.21;50.53;100888.84;5425133;32;34644;-64
2022/04/12 03:21:06;;;;;;;14.90;8.30;;;;;;;7.17;50.64;100887.16;5404215;32;34786;-64
2022/04/12 03:24:08;;;;;;;15.63;8.10;;;;;;;7.30;50.47;100883.44;5422584;32;34770;-75
2022/04/12 03:27:11;;;;;;;16.97;7.83;;;;;;;7.27;50.14;100882.62;5397059;32;35099;-65
2022/04/12 03:30:13;;;;;;;15.87;7.67;;;;;;;6.21;53.22;100889.47;5401820;32;35319;-64
2022/04/12 03:33:15;;;;;;;13.53;7.60;;;;;;;5.63;55.31;100897.09;5417739;32;34755;-65
2022/04/12 03:36:17;;;;;;;17.37;7.80;;;;;;;6.20;53.63;100892.13;5412489;32;35915;-75
2022/04/12 03:39:19;;;;;;;17.20;7.90;;;;;;;6.68;52.41;100893.16;5411525;32;35248;-75
2022/04/12 03:42:22;;;;;;;17.60;8.33;;;;;;;5.92;53.91;100889.84;5407817;32;43688;-76
2022/04/12 03:45:24;;;;;;;16.43;7.60;;;;;;;5.64;55.09;100898.84;5400737;32;34883;-75
2022/04/12 03:48:26;;;;;;;17.90;8.37;;;;;;;5.55;56.07;100896.34;5415887;32;34716;-74
2022/04/12 03:51:28;;;;;;;13.87;7.47;;;;;;;5.49;55.99;100905.06;5409811;32;34248;-72
2022/04/12 03:54:30;;;;;;;43.93;11.77;;;;;;;5.67;55.92;100909.25;5412998;32;35202;-64
2022/04/12 03:57:32;;;;;;;19.50;7.63;;;;;;;6.19;54.37;100906.06;5380675;32;34905;-65
2022/04/12 04:00:35;;;;;;;15.67;7.83;;;;;;;6.80;52.53;100905.19;5415643;32;34926;-63
2022/04/12 04:03:37;;;;;;;18.47;8.40;;;;;;;6.99;51.57;100908.37;5408416;32;35130;-71
2022/04/12 04:06:40;;;;;;;16.10;7.23;;;;;;;6.81;51.83;100906.91;5391076;32;252441;-75
2022/04/12 04:09:42;;;;;;;19.47;8.53;;;;;;;6.80;52.18;100907.78;5411230;32;34650;-66
2022/04/12 04:12:44;;;;;;;17.40;8.60;;;;;;;6.39;53.27;100911.87;5399768;32;32738;-64
2022/04/12 04:15:46;;;;;;;21.33;8.37;;;;;;;6.66;52.92;100915.84;5429240;32;36488;-64
2022/04/12 04:18:48;;;;;;;19.23;8.03;;;;;;;6.59;52.07;100911.59;5407352;32;34633;-75
2022/04/12 04:21:50;;;;;;;18.20;7.77;;;;;;;5.53;56.40;100924.16;5386664;32;44677;-68
2022/04/12 04:24:53;;;;;;;20.53;7.17;;;;;;;5.63;56.59;100924.03;5413473;32;35257;-64
2022/04/12 04:27:55;;;;;;;18.77;9.30;;;;;;;5.65;55.80;100924.03;5419254;32;35007;-63
2022/04/12 04:30:57;;;;;;;17.10;8.90;;;;;;;5.61;56.84;100919.75;5399678;32;35609;-64
2022/04/12 04:33:59;;;;;;;17.37;8.07;;;;;;;6.05;55.56;100923.59;5407716;32;35078;-75
2022/04/12 04:37:01;;;;;;;17.87;8.77;;;;;;;5.55;56.96;100932.84;5409502;32;35362;-65
2022/04/12 04:40:04;;;;;;;18.50;8.67;;;;;;;6.49;53.59;100933.47;5413248;32;34775;-76
2022/04/12 04:43:07;;;;;;;18.60;8.13;;;;;;;6.76;52.52;100927.91;5428026;32;35425;-65
2022/04/12 04:46:10;;;;;;;14.87;7.90;;;;;;;6.10;54.55;100934.84;5408221;32;34686;-64
2022/04/12 04:49:12;;;;;;;18.97;7.63;;;;;;;7.23;51.30;100925.41;5404951;32;34623;-73
2022/04/12 04:52:14;;;;;;;16.30;8.57;;;;;;;6.70;52.08;100930.59;5408238;32;35769;-75
2022/04/12 04:55:17;;;;;;;15.97;7.33;;;;;;;5.64;55.05;100943.16;5401228;32;36114;-75
2022/04/12 04:58:19;;;;;;;16.73;7.50;;;;;;;6.07;54.22;100935.78;5389207;32;34400;-77
2022/04/12 05:01:21;;;;;;;32.47;19.87;;;;;;;6.54;52.26;100941.25;5409689;32;45791;-76
2022/04/12 05:04:23;;;;;;;18.57;8.43;;;;;;;6.48;52.72;100942.22;5422595;32;34607;-65
2022/04/12 05:07:26;;;;;;;18.67;7.83;;;;;;;6.59;52.59;100955.13;5394160;32;34649;-76
2022/04/12 05:10:29;;;;;;;18.43;7.27;;;;;;;7.01;50.74;100951.87;5418730;32;35405;-72
2022/04/12 05:13:32;;;;;;;17.48;7.75;;;;;;;7.28;50.71;100963.66;5409105;32;34784;-64
2022/04/12 05:16:34;;;;;;;17.67;7.83;;;;;;;7.28;50.16;100957.56;5403813;32;35444;-72
2022/04/12 05:19:37;;;;;;;18.87;7.60;;;;;;;8.10;48.19;100960.44;5421423;32;35612;-75
2022/04/12 05:22:39;;;;;;;19.10;7.73;;;;;;;8.07;48.32;100953.50;5397214;32;35483;-76
2022/04/12 05:25:41;;;;;;;15.07;8.40;;;;;;;8.10;48.78;100971.75;5418319;32;34857;-65
2022/04/12 05:28:43;;;;;;;21.23;8.03;;;;;;;8.27;48.26;100967.97;5410152;32;34206;-64
2022/04/12 05:31:45;;;;;;;16.47;7.67;;;;;;;9.14;45.58;100963.41;5416151;32;34780;-64
2022/04/12 05:34:47;;;;;;;19.53;7.20;;;;;;;9.97;43.69;100957.75;5417273;32;35002;-65
2022/04/12 05:37:52;;;;;;;14.97;7.40;;;;;;;9.39;44.38;100958.44;5396500;32;33770;-64
2022/04/12 05:40:55;;;;;;;13.33;6.53;;;;;;;9.95;43.69;100951.69;5409810;32;44375;-78
2022/04/12 05:43:57;;;;;;;15.83;7.60;;;;;;;10.32;41.17;100957.72;5400311;32;34698;-64
2022/04/12 05:47:00;;;;;;;14.67;6.73;;;;;;;10.23;42.26;100961.47;5413616;32;34137;-69
2022/04/12 05:50:02;;;;;;;;;;;;;;;11.06;39.56;100965.94;5396828;32;35959;-73
2022/04/12 05:53:04;;;;;;;12.10;6.10;;;;;;;11.37;38.33;100963.19;5407526;32;34937;-70
2022/04/12 05:56:07;;;;;;;13.43;6.30;;;;;;;12.15;36.93;100960.50;5395763;32;35336;-68
2022/04/12 05:59:09;;;;;;;17.70;6.60;;;;;;;11.42;37.73;100968.31;5400450;32;35778;-72
2022/04/12 06:02:11;;;;;;;13.67;6.60;;;;;;;12.27;36.58;100967.09;5398365;32;35023;-68
2022/04/12 06:05:14;;;;;;;13.53;5.60;;;;;;;11.71;36.29;100977.84;5402377;32;34132;-70
2022/04/12 06:08:16;;;;;;;22.90;6.87;;;;;;;13.99;32.54;100971.63;5405734;32;34058;-67
2022/04/12 06:11:18;;;;;;;13.95;5.82;;;;;;;13.58;32.96;100970.75;5409379;32;34170;-75
2022/04/12 06:14:20;;;;;;;13.27;5.70;;;;;;;13.46;32.50;100982.66;5419657;32;35575;-75
2022/04/12 06:17:29;;;;;;;12.17;6.10;;;;;;;13.88;31.97;100971.22;5412866;32;44703;-70
2022/04/12 06:20:31;;;;;;;10.80;6.03;;;;;;;13.53;32.04;100971.81;5410920;32;33935;-74
2022/04/12 06:23:34;;;;;;;16.08;6.37;;;;;;;13.64;32.65;100973.13;5417894;32;35808;-68
2022/04/12 06:26:36;;;;;;;13.23;6.60;;;;;;;14.26;31.18;100977.47;5414127;32;33974;-67
2022/04/12 06:29:39;;;;;;;13.20;6.35;;;;;;;15.30;29.29;100975.22;5428582;32;34126;-69
2022/04/12 06:32:41;;;;;;;;;;;;;;;13.72;31.35;100979.81;5411874;32;35314;-69
2022/04/12 06:35:44;;;;;;;12.67;6.30;;;;;;;13.06;32.48;100984.25;5404854;32;35454;-69
2022/04/12 06:38:46;;;;;;;15.95;6.78;;;;;;;13.62;31.88;100990.84;5414135;32;34081;-69
2022/04/12 06:41:48;;;;;;;16.10;7.37;;;;;;;13.86;31.63;100986.28;5411368;32;34535;-65
2022/04/12 06:44:51;;;;;;;18.50;8.70;;;;;;;15.54;29.31;100989.91;5427296;32;34063;-65
2022/04/12 06:47:55;;;;;;;12.18;6.32;;;;;;;15.23;29.70;100993.19;5405320;32;44597;-69
2022/04/12 06:50:57;;;;;;;11.90;6.83;;;;;;;15.23;29.77;100995.00;5409711;32;34269;-71
2022/04/12 06:54:00;;;;;;;12.80;7.50;;;;;;;17.81;25.96;100984.56;5409678;32;36023;-73
2022/04/12 06:57:06;;;;;;;13.43;7.90;;;;;;;16.43;27.54;100990.63;5390658;32;37228;-72
2022/04/12 07:00:09;;;;;;;16.77;7.87;;;;;;;16.05;28.61;100984.69;5421330;32;33738;-73
2022/04/12 07:03:12;;;;;;;14.52;8.13;;;;;;;15.57;29.26;100984.44;5405653;32;34324;-78
2022/04/12 07:06:14;;;;;;;;;;;;;;;14.89;30.79;100978.94;5416118;32;34235;-78
2022/04/12 07:09:20;;;;;;;14.87;8.23;;;;;;;14.23;31.42;100986.41;5375759;32;35506;-73
2022/04/12 07:12:24;;;;;;;12.63;7.47;;;;;;;16.47;29.04;100981.53;5394082;32;44457;-73
2022/04/12 07:15:26;;;;;;;13.88;7.00;;;;;;;16.38;28.11;100987.34;5403983;32;35982;-77
2022/04/12 07:18:29;;;;;;;14.02;7.78;;;;;;;18.20;25.83;100980.44;5416328;32;34157;-82
2022/04/12 07:21:31;;;;;;;13.15;7.45;;;;;;;15.41;29.72;101000.25;5416978;32;35118;-75
2022/04/12 07:24:33;;;;;;;14.35;7.20;;;;;;;15.26;29.51;100995.69;5407651;32;35877;-85
2022/04/12 07:27:36;;;;;;;11.85;7.20;;;;;;;16.83;27.28;100993.78;5423839;32;34209;-76
2022/04/12 07:30:39;;;;;;;18.25;7.07;;;;;;;16.17;28.30;100995.53;5396616;32;35517;-69
2022/04/12 07:34:01;;;;;;;15.70;7.70;;;;;;;16.05;28.18;100998.81;5413016;32;33814;-69
2022/04/12 07:37:03;;;;;;;16.05;7.65;;;;;;;17.92;25.61;100991.03;5410069;32;34183;-67
2022/04/12 07:40:06;;;;;;;;;;;;;;;16.55;27.39;100994.38;5407480;32;35329;-67
2022/04/12 07:43:08;;;;;;;14.43;6.85;;;;;;;19.01;24.26;100982.47;5420552;32;34393;-70
2022/04/12 07:46:10;;;;;;;14.32;6.60;;;;;;;17.72;25.23;100990.44;5401448;32;35773;-89
2022/04/12 07:49:23;;;;;;;;;;;;;;;17.49;24.76;100993.53;5418569;32;44462;-71
2022/04/12 07:52:25;;;;;;;10.55;6.05;;;;;;;18.16;23.67;100986.03;5399447;32;36774;-73
2022/04/12 07:55:28;;;;;;;12.88;6.82;;;;;;;17.29;24.67;100995.56;5389728;32;34689;-74
2022/04/12 07:58:30;;;;;;;12.35;7.35;;;;;;;18.85;23.89;100977.28;5392240;32;38049;-73
2022/04/12 08:01:33;;;;;;;13.27;7.62;;;;;;;17.97;25.10;100989.81;5410399;32;37514;-70
2022/04/12 08:04:35;;;;;;;11.50;7.57;;;;;;;17.25;26.49;100994.00;5423547;32;36331;-67
2022/04/12 08:07:39;;;;;;;10.85;6.93;;;;;;;17.92;25.73;100986.59;5407487;32;35598;-73
2022/04/12 08:10:42;;;;;;;15.95;9.05;;;;;;;17.49;25.97;101002.38;5415513;32;34198;-74
2022/04/12 08:13:45;;;;;;;;;;;;;;;21.62;21.39;100980.97;5403777;32;34165;-73
2022/04/12 08:16:48;;;;;;;13.68;6.55;;;;;;;20.55;22.02;100985.34;5410684;32;34019;-70
2022/04/12 08:19:50;;;;;;;10.80;4.60;;;;;;;19.07;23.52;100993.59;5406645;32;35674;-70
2022/04/12 08:22:53;;;;;;;13.35;8.32;;;;;;;19.24;22.76;100987.13;5386405;32;44616;-72
2022/04/12 08:25:55;;;;;;;;;;;;;;;21.57;19.38;100991.16;5408410;32;35560;-71
2022/04/12 08:28:57;;;;;;;13.05;6.25;;;;;;;18.82;22.33;100991.66;5407576;32;35707;-71
2022/04/12 08:31:59;;;;;;;10.90;4.53;;;;;;;20.50;20.72;100987.47;5417923;32;35353;-69
2022/04/12 08:35:03;;;;;;;7.95;3.95;;;;;;;19.01;21.15;100993.13;5408968;32;34311;-81
2022/04/12 08:38:06;;;;;;;8.10;4.18;;;;;;;19.74;21.04;101002.47;5399631;32;34102;-77
2022/04/12 08:41:08;;;;;;;;;;;;;;;20.64;19.72;100992.69;5421040;32;35429;-76
2022/04/12 08:44:10;;;;;;;11.05;5.03;;;;;;;20.63;19.15;100998.16;5412560;32;34251;-74
2022/04/12 08:47:18;;;;;;;11.27;4.75;;;;;;;20.94;17.63;100994.13;5422946;32;33965;-69
2022/04/12 08:50:21;;;;;;;10.30;5.47;;;;;;;21.89;17.09;100990.53;5400630;32;35221;-71
2022/04/12 08:53:23;;;;;;;9.48;5.37;;;;;;;23.88;15.18;100983.31;5390764;32;44527;-78
2022/04/12 08:56:26;;;;;;;;;;;;;;;21.12;18.33;100994.56;5387967;32;34063;-75
2022/04/12 08:59:28;;;;;;;12.75;6.22;;;;;;;20.28;19.40;100994.28;5407676;32;37368;-81
2022/04/12 09:02:31;;;;;;;13.30;5.72;;;;;;;19.98;19.97;100989.28;5414725;32;34692;-73
2022/04/12 09:05:33;;;;;;;;;;;;;;;19.48;20.79;100990.84;5398276;32;34643;-88
2022/04/12 09:08:36;;;;;;;10.98;5.07;;;;;;;20.65;19.47;100985.53;5421509;32;33960;-76
2022/04/12 09:11:42;;;;;;;10.60;5.10;;;;;;;19.37;21.04;100984.53;5404879;32;33917;-73
2022/04/12 09:14:55;;;;;;;16.52;5.25;;;;;;;21.31;19.24;100979.75;5415144;32;34252;-74
2022/04/12 09:17:58;;;;;;;11.18;4.82;;;;;;;21.12;19.20;100986.56;5411529;32;44390;-82
2022/04/12 09:21:11;;;;;;;7.50;4.05;;;;;;;20.68;19.64;100974.62;5411027;32;34332;-81
2022/04/12 09:24:21;;;;;;;8.40;4.53;;;;;;;22.18;17.72;100974.94;5424728;32;35695;-71
2022/04/12 09:27:28;;;;;;;12.30;4.45;;;;;;;20.61;18.84;100971.56;5414217;32;48062;-73
2022/04/12 09:30:31;;;;;;;9.38;4.85;;;;;;;22.31;17.32;100951.56;5419810;32;34208;-70
2022/04/12 09:33:37;;;;;;;7.62;4.15;;;;;;;24.19;15.67;100951.16;5414920;32;35310;-77
2022/04/12 09:36:41;;;;;;;9.68;4.60;;;;;;;22.61;17.29;100947.44;5396339;32;33977;-73
2022/04/12 09:39:58;;;;;;;8.98;4.53;;;;;;;20.27;19.00;100949.88;5412596;32;35304;-68
2022/04/12 09:43:05;;;;;;;10.85;5.05;;;;;;;22.59;16.46;100941.31;5411904;32;45932;-71
2022/04/12 09:46:13;;;;;;;8.23;4.22;;;;;;;22.87;16.44;100945.34;5413010;32;35389;-69
2022/04/12 09:49:16;;;;;;;11.45;4.65;;;;;;;24.96;14.49;100929.91;5413952;32;35210;-70
2022/04/12 09:52:18;;;;;;;10.07;4.50;;;;;;;23.74;15.37;100936.19;5412900;32;35619;-70
2022/04/12 09:55:49;;;;;;;10.85;4.45;;;;;;;25.91;13.58;100921.97;5397993;32;33767;-72
2022/04/12 09:58:54;;;;;;;9.25;4.30;;;;;;;21.69;16.65;100930.53;5390466;32;33889;-67
2022/04/12 10:01:56;;;;;;;10.18;4.97;;;;;;;22.91;16.13;100933.38;5419769;32;37309;-69
2022/04/12 10:05:03;;;;;;;8.88;4.60;;;;;;;21.41;16.86;100937.16;5411615;32;34055;-67
2022/04/12 10:08:06;;;;;;;8.00;4.07;;;;;;;21.91;17.11;100932.41;5413930;32;35058;-67
2022/04/12 10:11:11;;;;;;;8.85;4.57;;;;;;;23.63;15.26;100928.22;5423194;32;35204;-82
2022/04/12 10:14:15;;;;;;;8.07;4.20;;;;;;;26.11;13.35;100911.16;5401291;32;35656;-68
2022/04/12 10:17:18;;;;;;;8.07;4.20;;;;;;;25.36;13.54;100924.44;5427974;32;34178;-71
2022/04/12 10:20:20;;;;;;;9.32;4.28;;;;;;;22.71;15.77;100914.38;5417375;32;36019;-70
2022/04/12 10:23:25;;;;;;;8.60;4.30;;;;;;;25.16;13.50;100913.81;5419862;32;44032;-71
2022/04/12 10:26:29;;;;;;;8.75;4.90;;;;;;;23.49;15.00;100907.91;5397328;32;35964;-70
2022/04/12 10:29:32;;;;;;;7.80;4.30;;;;;;;23.56;15.14;100900.19;5412905;32;35479;-76
2022/04/12 10:32:34;;;;;;;13.10;4.78;;;;;;;23.04;15.38;100906.41;5409697;32;34176;-70
2022/04/12 10:35:46;;;;;;;9.48;4.65;;;;;;;23.22;15.51;100889.62;5403666;32;33038;-68
2022/04/12 10:38:49;;;;;;;8.77;4.32;;;;;;;24.95;14.08;100889.72;5420987;32;34218;-70
2022/04/12 10:41:54;;;;;;;11.15;5.12;;;;;;;25.99;12.84;100882.69;5396450;32;45249;-72
2022/04/12 10:45:01;;;;;;;6.72;4.12;;;;;;;26.35;12.60;100873.75;5415968;32;35414;-75
2022/04/12 10:48:04;;;;;;;9.43;4.28;;;;;;;26.83;12.43;100869.91;5424838;32;34176;-75
2022/04/12 10:51:08;;;;;;;9.95;5.05;;;;;;;25.00;14.15;100874.03;5415438;32;35916;-79
2022/04/12 10:54:30;;;;;;;8.68;4.12;;;;;;;22.91;15.69;100877.09;5411476;32;35402;-70
2022/04/12 10:57:33;;;;;;;12.10;5.35;;;;;;;22.91;15.56;100885.97;5393526;32;35327;-72
2022/04/12 11:00:36;;;;;;;10.93;5.12;;;;;;;22.49;16.48;100876.09;5381826;32;34146;-70
2022/04/12 11:03:41;;;;;;;8.02;4.47;;;;;;;22.91;16.33;100872.56;5420091;32;34049;-77
2022/04/12 11:06:46;;;;;;;9.68;5.12;;;;;;;21.06;17.44;100889.84;5412486;32;35098;-76
2022/04/12 11:10:13;;;;;;;11.23;4.70;;;;;;;22.71;16.14;100879.56;5421033;32;35717;-76
2022/04/12 11:13:22;;;;;;;9.32;4.50;;;;;;;21.15;17.89;100871.41;5413030;32;34117;-76
2022/04/12 11:16:26;;;;;;;9.23;4.40;;;;;;;22.93;16.12;100865.28;5415558;32;44686;-76
2022/04/12 11:19:41;;;;;;;8.40;4.55;;;;;;;23.08;16.07;100859.63;5415400;32;33971;-71
2022/04/12 11:22:46;;;;;;;8.77;4.50;;;;;;;24.88;14.22;100853.66;5403353;32;35181;-71
2022/04/12 11:25:51;;;;;;;8.95;4.50;;;;;;;21.88;17.09;100850.53;5401202;32;33947;-74
2022/04/12 11:28:57;;;;;;;9.63;4.70;;;;;;;24.14;15.24;100844.13;5407786;32;43185;-76
2022/04/12 11:32:00;;;;;;;7.10;4.05;;;;;;;22.97;16.07;100847.09;5411795;32;35133;-74
2022/04/12 11:35:03;;;;;;;10.80;4.90;;;;;;;23.37;16.21;100833.84;5397493;32;34147;-74
2022/04/12 11:38:06;;;;;;;7.20;4.22;;;;;;;26.34;13.71;100825.38;5409356;32;34220;-72
2022/04/12 11:41:08;;;;;;;;;;;;;;;28.50;11.62;100822.91;5406727;32;33685;-87
2022/04/12 11:44:11;;;;;;;8.43;4.50;;;;;;;27.28;12.15;100825.81;5394085;32;36976;-82
2022/04/12 11:47:14;;;;;;;10.82;4.47;;;;;;;25.90;13.95;100819.81;5410907;32;34193;-79
2022/04/12 11:50:19;;;;;;;9.73;4.70;;;;;;;26.38;13.36;100816.84;5410778;32;34203;-75
2022/04/12 11:53:26;;;;;;;8.40;4.25;;;;;;;24.75;14.33;100833.25;5414029;32;44330;-73
2022/04/12 11:56:28;;;;;;;8.00;4.90;;;;;;;27.55;12.29;100816.69;5384888;32;35828;-79
2022/04/12 11:59:33;;;;;;;12.05;7.53;;;;;;;25.74;13.23;100816.87;5389962;32;35501;-72
2022/04/12 12:02:39;;;;;;;9.75;4.90;;;;;;;24.27;15.38;100825.09;5417482;32;34952;-81
2022/04/12 12:05:45;;;;;;;8.65;4.43;;;;;;;23.08;16.13;100830.13;5386677;32;35393;-81
2022/04/12 12:08:48;;;;;;;10.38;5.05;;;;;;;24.58;14.96;100818.66;5420474;32;34055;-71
2022/04/12 12:11:50;;;;;;;;;;;;;;;24.72;15.00;100821.94;5398699;32;32171;-73
2022/04/12 12:14:52;;;;;;;10.15;5.07;;;;;;;24.84;14.73;100818.12;5414075;32;44385;-73
2022/04/12 12:17:58;;;;;;;;;;;;;;;24.90;14.09;100814.88;5391226;32;35906;-79
2022/04/12 12:21:00;;;;;;;9.07;4.87;;;;;;;25.98;13.68;100808.28;5408994;32;34340;-71
2022/04/12 12:24:06;;;;;;;11.12;4.97;;;;;;;24.77;14.41;100812.47;5418456;32;34168;-71
2022/04/12 12:27:08;;;;;;;7.45;4.65;;;;;;;27.16;12.79;100794.69;5407181;32;33956;-78
2022/04/12 12:30:19;;;;;;;10.60;5.05;;;;;;;25.01;14.47;100797.75;5399202;32;34362;-78
2022/04/12 12:33:23;;;;;;;11.18;4.72;;;;;;;29.14;11.47;100789.66;5393118;32;44427;-82
2022/04/12 12:36:25;;;;;;;11.20;5.45;;;;;;;25.59;13.85;100798.50;5382506;32;34123;-72
2022/04/12 12:39:28;;;;;;;9.43;4.75;;;;;;;25.94;14.01;100791.56;5409335;32;33753;-74
2022/04/12 12:42:37;;;;;;;9.10;5.05;;;;;;;27.36;12.74;100787.22;5407895;32;35197;-75
2022/04/12 12:45:45;;;;;;;9.88;5.68;;;;;;;27.40;12.53;100781.38;5414541;32;34638;-77
2022/04/12 12:48:47;;;;;;;9.18;5.70;;;;;;;27.00;12.69;100776.50;5408864;32;35931;-80
2022/04/12 12:51:50;;;;;;;9.25;4.80;;;;;;;28.50;11.75;100779.66;5388039;32;36166;-79
2022/04/12 12:54:55;;;;;;;11.95;5.45;;;;;;;27.91;11.75;100776.94;5415245;32;44460;-76
2022/04/12 12:58:04;;;;;;;12.13;5.57;;;;;;;27.88;12.02;100773.69;5387266;32;34125;-74
2022/04/12 13:01:06;;;;;;;8.65;5.10;;;;;;;27.92;12.00;100769.66;5418582;32;34338;-86
2022/04/12 13:04:22;;;;;;;10.07;6.28;;;;;;;25.17;13.70;100773.81;5395273;32;34207;-75
2022/04/12 13:07:33;;;;;;;13.32;5.45;;;;;;;22.81;16.51;100777.84;5398658;32;44681;-72
2022/04/12 13:10:38;;;;;;;10.55;5.35;;;;;;;22.70;16.56;100777.88;5410538;32;34166;-73
2022/04/12 13:13:40;;;;;;;11.12;5.40;;;;;;;20.54;18.46;100791.34;5397937;32;34296;-71
2022/04/12 13:16:43;;;;;;;11.23;5.70;;;;;;;19.49;19.54;100784.62;5420003;32;35685;-75
2022/04/12 13:19:45;;;;;;;13.55;5.45;;;;;;;19.88;19.66;100779.28;5385167;32;34163;-81
2022/04/12 13:22:47;;;;;;;10.52;5.60;;;;;;;19.21;20.25;100768.84;5420640;32;36940;-77
2022/04/12 13:25:49;;;;;;;12.32;5.10;;;;;;;19.18;20.57;100756.59;5411043;32;35100;-80
2022/04/12 13:28:52;;;;;;;11.80;5.12;;;;;;;19.45;20.27;100763.66;5395967;32;44604;-80
2022/04/12 13:31:55;;;;;;;10.93;5.57;;;;;;;19.52;20.33;100764.91;5413046;32;35360;-77
2022/04/12 13:35:01;;;;;;;9.45;5.03;;;;;;;18.48;21.58;100763.13;5384634;32;35304;-76
2022/04/12 13:38:03;;;;;;;11.02;4.70;;;;;;;18.70;21.26;100760.78;5418316;32;36030;-77
2022/04/12 13:41:06;;;;;;;11.80;5.93;;;;;;;19.10;21.23;100747.41;5396001;32;35339;-76
2022/04/12 13:44:09;;;;;;;;;;;;;;;19.08;21.25;100758.19;5389356;32;34147;-77
2022/04/12 13:47:31;;;;;;;9.88;4.90;;;;;;;19.68;20.53;100754.03;5404627;32;46234;-77
2022/04/12 13:50:33;;;;;;;10.07;5.20;;;;;;;19.34;21.19;100752.88;5380709;32;35245;-79
2022/04/12 13:53:35;;;;;;;10.15;4.78;;;;;;;19.21;20.87;100753.72;5417420;32;34725;-74
2022/04/12 13:56:38;;;;;;;12.32;4.45;;;;;;;18.79;20.95;100753.97;5391928;32;34202;-74
2022/04/12 13:59:41;;;;;;;9.68;4.87;;;;;;;19.49;20.08;100749.97;5391143;32;35213;-75
2022/04/12 14:02:43;;;;;;;11.25;4.85;;;;;;;18.85;21.01;100757.09;5388487;32;34756;-76
2022/04/12 14:05:46;;;;;;;14.20;5.32;;;;;;;19.90;19.82;100745.34;5415168;32;34203;-76
2022/04/12 14:08:48;;;;;;;11.38;5.15;;;;;;;18.32;21.64;100756.16;5392457;32;34079;-80
2022/04/12 14:11:51;;;;;;;10.77;5.12;;;;;;;18.84;21.54;100749.19;5394669;32;34350;-82
2022/04/12 14:14:54;;;;;;;11.83;5.13;;;;;;;19.39;21.24;100743.59;5420213;32;44511;-84
2022/04/12 14:17:56;;;;;;;10.85;5.25;;;;;;;19.64;20.99;100731.22;5383752;32;34319;-75